METAR Data
IDs: Format: Raw Decoded Include TAF

Data at: 0343 UTC 18 Jun 2019

PAGL 180256Z AUTO 36013KT 10SM CLR 21/01 A2965 RMK AO2 SLP037 T02110006 55006
PAGL 180156Z AUTO 36015G23KT 10SM CLR 21/04 A2965 RMK AO2 SLP036 T02060044
PAGL 180056Z AUTO 36014G20KT 9SM CLR 21/07 A2966 RMK AO2 PK WND 35027/0021 SLP039 T02110067
PAGL 172356Z AUTO 36016G21KT 10SM CLR 21/07 A2967 RMK AO2 SLP043 T02060067 10206 20167 55016
PAGL 172256Z AUTO 35016G22KT 10SM CLR 19/08 A2966 RMK AO2 SLP042 T01890078
PAGL 172156Z AUTO 35013KT 10SM CLR 21/08 A2969 RMK AO2 SLP050 T02060078
PAGL 172056Z AUTO 35008G14KT 10SM CLR 19/09 A2972 RMK AO2 SLP059 T01890089 58008
PAGL 171956Z AUTO 32009KT 10SM CLR 18/08 A2973 RMK AO2 SLP063 T01830083
PAGL 171856Z AUTO 33008KT 10SM CLR 18/08 A2974 RMK AO2 SLP066 T01780083
PAGL 171756Z AUTO 34012KT 10SM CLR 17/06 A2974 RMK AO2 SLP067 T01720061 10172 20106 58011
PAGL 171656Z AUTO 32009KT 10SM CLR 14/07 A2976 RMK AO2 SLP075 T01440067
PAGL 171556Z AUTO 32008KT 10SM CLR 12/07 A2977 RMK AO2 SLP076 T01220067
PAGL 171456Z AUTO 35009KT 10SM CLR 11/06 A2977 RMK AO2 SLP078 T01060056 58009
PAGL 171356Z AUTO 34007KT 10SM CLR 11/05 A2978 RMK AO2 SLP082 T01060050
PAGL 171256Z AUTO 34007KT 10SM CLR 11/05 A2979 RMK AO2 SLP085 T01110050
PAGL 171156Z AUTO 33007KT 10SM CLR 12/06 A2980 RMK AO2 SLP088 T01170056 10217 20100 50001
PAGL 171056Z AUTO 32007KT 10SM CLR 13/07 A2980 RMK AO2 SLP089 T01280072
PAGL 170956Z AUTO 01010KT 10SM CLR 13/05 A2980 RMK AO2 SLP088 T01280050
PAGL 170856Z AUTO 01008KT 10SM CLR 15/06 A2980 RMK AO2 SLP087 T01500056 402330106 53004
PAGL 170756Z AUTO 01009KT 10SM CLR 17/06 A2979 RMK AO2 SLP085 T01720061
PAGL 170656Z AUTO 01009KT 10SM CLR 19/06 A2979 RMK AO2 SLP085 T01940061
PAGL 170556Z AUTO 01011KT 10SM CLR 22/06 A2979 RMK AO2 SLP083 T02170061 10233 20178 55002
PAGL 170456Z AUTO 02011G18KT 10SM SCT075 23/06 A2978 RMK AO2 SLP082 T02280061
PAGL 170356Z AUTO 03012KT 10SM FEW075 23/06 A2979 RMK AO2 SLP083 T02280061
PAGL 170256Z AUTO 35006KT 10SM BKN075 23/07 A2979 RMK AO2 SLP085 T02280067 56012
PAGL 170156Z AUTO 00000KT 10SM SCT075 SCT085 19/11 A2980 RMK AO2 SLP089 T01940106
PAGL 170056Z AUTO 16005KT 10SM SCT075 19/13 A2982 RMK AO2 SLP093 T01940128
PAGL 162356Z AUTO VRB04KT 10SM SCT070 OVC085 18/13 A2983 RMK AO2 SLP097 T01780128 10222 20139 56008
PAGL 162256Z AUTO 00000KT 8SM BKN065 21/10 A2984 RMK AO2 SLP100 T02060100
PAGL 162156Z AUTO 01007KT 10SM OVC065 21/08 A2984 RMK AO2 SLP103 T02110083
PAGL 162056Z AUTO 00000KT 10SM FEW070 21/09 A2985 RMK AO2 SLP106 T02110089 58007
PAGL 161956Z AUTO 28004KT 10SM CLR 17/11 A2986 RMK AO2 SLP109 T01720111
PAGL 161856Z AUTO 29006KT 10SM CLR 16/10 A2987 RMK AO2 SLP111 T01610100
PAGL 161756Z AUTO 31007KT 10SM CLR 14/09 A2987 RMK AO2 SLP113 T01390094 10139 20106 55000
PAGL 161656Z AUTO 32008KT 9SM CLR 13/09 A2987 RMK AO2 SLP113 T01280089
PAGL 161556Z AUTO 32007KT 9SM SCT065 12/08 A2987 RMK AO2 SLP111 T01170078